sensor_id;sensor_type;location;lat;lon;timestamp;pressure;altitude;pressure_sealevel;temperature;humidity
12077;BME280;12420;42.676;23.262;2023-04-29T00:00:15;94622.84;;;8.72;89.61
12077;BME280;12420;42.676;23.262;2023-04-29T00:02:43;94618.88;;;8.67;89.79
12077;BME280;12420;42.676;23.262;2023-04-29T00:05:10;94607.09;;;8.66;89.37
12077;BME280;12420;42.676;23.262;2023-04-29T00:07:37;94616.34;;;8.69;89.31
12077;BME280;12420;42.676;23.262;2023-04-29T00:10:05;94608.94;;;8.58;89.11
12077;BME280;12420;42.676;23.262;2023-04-29T00:12:32;94622.16;;;8.65;89.86
12077;BME280;12420;42.676;23.262;2023-04-29T00:14:58;94622.97;;;8.60;90.66
12077;BME280;12420;42.676;23.262;2023-04-29T00:17:27;94622.44;;;8.62;91.40
12077;BME280;12420;42.676;23.262;2023-04-29T00:19:55;94629.41;;;8.68;90.36
12077;BME280;12420;42.676;23.262;2023-04-29T00:22:22;94631.94;;;8.66;89.26
12077;BME280;12420;42.676;23.262;2023-04-29T00:24:49;94632.72;;;8.61;89.12
12077;BME280;12420;42.676;23.262;2023-04-29T00:27:15;94626.50;;;8.55;90.05
12077;BME280;12420;42.676;23.262;2023-04-29T00:29:42;94630.06;;;8.50;90.67
12077;BME280;12420;42.676;23.262;2023-04-29T00:32:09;94638.13;;;8.37;91.91
12077;BME280;12420;42.676;23.262;2023-04-29T00:34:36;94633.66;;;8.34;92.11
12077;BME280;12420;42.676;23.262;2023-04-29T00:37:04;94624.16;;;8.29;92.86
12077;BME280;12420;42.676;23.262;2023-04-29T00:39:31;94631.97;;;8.25;92.52
12077;BME280;12420;42.676;23.262;2023-04-29T00:41:58;94629.16;;;8.31;91.68
12077;BME280;12420;42.676;23.262;2023-04-29T00:44:25;94633.88;;;8.36;91.34
12077;BME280;12420;42.676;23.262;2023-04-29T00:46:52;94626.59;;;8.38;89.76
12077;BME280;12420;42.676;23.262;2023-04-29T00:49:19;94613.91;;;8.24;89.18
12077;BME280;12420;42.676;23.262;2023-04-29T00:51:46;94622.63;;;8.34;88.38
12077;BME280;12420;42.676;23.262;2023-04-29T00:54:15;94622.13;;;8.35;88.79
12077;BME280;12420;42.676;23.262;2023-04-29T00:56:44;94611.91;;;8.24;88.24
12077;BME280;12420;42.676;23.262;2023-04-29T00:59:11;94583.75;;;8.01;88.25
12077;BME280;12420;42.676;23.262;2023-04-29T01:01:40;94610.41;;;8.23;89.51
12077;BME280;12420;42.676;23.262;2023-04-29T01:04:07;94590.66;;;8.14;89.70
12077;BME280;12420;42.676;23.262;2023-04-29T01:06:40;94593.13;;;8.23;88.78
12077;BME280;12420;42.676;23.262;2023-04-29T01:09:26;94592.31;;;8.28;87.42
12077;BME280;12420;42.676;23.262;2023-04-29T01:12:04;94588.59;;;8.25;87.03
12077;BME280;12420;42.676;23.262;2023-04-29T01:14:32;94592.13;;;8.20;87.84
12077;BME280;12420;42.676;23.262;2023-04-29T01:17:05;94580.22;;;8.07;88.00
12077;BME280;12420;42.676;23.262;2023-04-29T01:19:38;94582.69;;;8.10;88.62
12077;BME280;12420;42.676;23.262;2023-04-29T01:22:10;94585.53;;;7.93;87.68
12077;BME280;12420;42.676;23.262;2023-04-29T01:24:39;94559.34;;;7.75;87.80
12077;BME280;12420;42.676;23.262;2023-04-29T01:27:13;94576.16;;;7.72;88.50
12077;BME280;12420;42.676;23.262;2023-04-29T01:29:48;94585.41;;;7.74;88.69
12077;BME280;12420;42.676;23.262;2023-04-29T01:32:20;94576.91;;;7.72;90.00
12077;BME280;12420;42.676;23.262;2023-04-29T01:34:58;94580.41;;;7.73;90.93
12077;BME280;12420;42.676;23.262;2023-04-29T01:37:34;94590.38;;;7.81;90.51
12077;BME280;12420;42.676;23.262;2023-04-29T01:40:15;94579.56;;;7.83;89.87
12077;BME280;12420;42.676;23.262;2023-04-29T01:42:45;94587.63;;;7.76;90.39
12077;BME280;12420;42.676;23.262;2023-04-29T01:45:14;94578.59;;;7.81;89.75
12077;BME280;12420;42.676;23.262;2023-04-29T01:47:42;94578.88;;;7.77;89.10
12077;BME280;12420;42.676;23.262;2023-04-29T01:50:10;94533.69;;;7.50;88.56
12077;BME280;12420;42.676;23.262;2023-04-29T01:52:37;94572.78;;;7.90;88.67
12077;BME280;12420;42.676;23.262;2023-04-29T01:57:13;94588.84;;;7.86;89.70
12077;BME280;12420;42.676;23.262;2023-04-29T01:59:42;94571.38;;;7.72;89.92
12077;BME280;12420;42.676;23.262;2023-04-29T02:02:09;94592.91;;;7.79;92.45
12077;BME280;12420;42.676;23.262;2023-04-29T02:04:36;94558.69;;;7.58;88.55
12077;BME280;12420;42.676;23.262;2023-04-29T02:07:02;94583.06;;;7.90;95.13
12077;BME280;12420;42.676;23.262;2023-04-29T02:09:29;94587.75;;;8.00;93.34
12077;BME280;12420;42.676;23.262;2023-04-29T02:11:56;94595.69;;;8.15;91.81
12077;BME280;12420;42.676;23.262;2023-04-29T02:14:24;94561.41;;;8.05;87.74
12077;BME280;12420;42.676;23.262;2023-04-29T02:16:51;94590.84;;;8.27;87.28
12077;BME280;12420;42.676;23.262;2023-04-29T02:19:18;94585.31;;;8.27;86.80
12077;BME280;12420;42.676;23.262;2023-04-29T02:21:44;94584.88;;;8.17;86.80
12077;BME280;12420;42.676;23.262;2023-04-29T02:24:11;94583.72;;;8.07;88.29
12077;BME280;12420;42.676;23.262;2023-04-29T02:26:38;94575.97;;;8.00;87.26
12077;BME280;12420;42.676;23.262;2023-04-29T02:29:05;94597.25;;;8.05;87.58
12077;BME280;12420;42.676;23.262;2023-04-29T02:31:34;94587.59;;;7.87;89.27
12077;BME280;12420;42.676;23.262;2023-04-29T02:34:01;94587.91;;;7.72;91.40
12077;BME280;12420;42.676;23.262;2023-04-29T02:36:27;94587.66;;;7.70;92.45
12077;BME280;12420;42.676;23.262;2023-04-29T02:38:54;94553.50;;;7.49;93.04
12077;BME280;12420;42.676;23.262;2023-04-29T02:41:21;94584.66;;;7.68;92.48
12077;BME280;12420;42.676;23.262;2023-04-29T02:43:50;94581.97;;;7.57;93.16
12077;BME280;12420;42.676;23.262;2023-04-29T02:46:16;94574.78;;;7.48;94.10
12077;BME280;12420;42.676;23.262;2023-04-29T02:48:45;94584.31;;;7.42;95.43
12077;BME280;12420;42.676;23.262;2023-04-29T02:51:12;94570.31;;;7.34;96.02
12077;BME280;12420;42.676;23.262;2023-04-29T02:53:38;94570.34;;;7.28;96.17
12077;BME280;12420;42.676;23.262;2023-04-29T02:56:05;94592.06;;;7.37;96.46
12077;BME280;12420;42.676;23.262;2023-04-29T02:58:32;94575.91;;;7.11;97.09
12077;BME280;12420;42.676;23.262;2023-04-29T03:00:59;94609.91;;;7.20;97.86
12077;BME280;12420;42.676;23.262;2023-04-29T03:03:25;94604.44;;;7.08;99.44
12077;BME280;12420;42.676;23.262;2023-04-29T03:05:53;94600.97;;;6.96;100.00
12077;BME280;12420;42.676;23.262;2023-04-29T03:08:20;94580.28;;;6.67;100.00
12077;BME280;12420;42.676;23.262;2023-04-29T03:10:47;94594.22;;;6.86;100.00
12077;BME280;12420;42.676;23.262;2023-04-29T03:13:14;94604.97;;;6.84;100.00
12077;BME280;12420;42.676;23.262;2023-04-29T03:15:41;94598.50;;;6.87;100.00
12077;BME280;12420;42.676;23.262;2023-04-29T03:18:08;94568.28;;;6.53;100.00
12077;BME280;12420;42.676;23.262;2023-04-29T03:20:35;94587.00;;;6.78;100.00
12077;BME280;12420;42.676;23.262;2023-04-29T03:23:03;94601.00;;;6.85;100.00
12077;BME280;12420;42.676;23.262;2023-04-29T03:25:30;94614.22;;;6.87;99.92
12077;BME280;12420;42.676;23.262;2023-04-29T03:27:56;94616.75;;;6.85;99.67
12077;BME280;12420;42.676;23.262;2023-04-29T03:30:23;94619.50;;;6.79;100.00
12077;BME280;12420;42.676;23.262;2023-04-29T03:32:50;94624.00;;;6.82;100.00
12077;BME280;12420;42.676;23.262;2023-04-29T03:35:17;94626.00;;;6.93;100.00
12077;BME280;12420;42.676;23.262;2023-04-29T03:37:44;94622.72;;;7.00;100.00
12077;BME280;12420;42.676;23.262;2023-04-29T03:40:13;94630.94;;;7.17;100.00
12077;BME280;12420;42.676;23.262;2023-04-29T03:42:40;94623.16;;;7.21;100.00
12077;BME280;12420;42.676;23.262;2023-04-29T03:45:08;94627.66;;;7.35;100.00
12077;BME280;12420;42.676;23.262;2023-04-29T03:47:37;94590.63;;;7.25;100.00
12077;BME280;12420;42.676;23.262;2023-04-29T03:50:05;94602.81;;;7.47;98.63
12077;BME280;12420;42.676;23.262;2023-04-29T03:52:32;94599.78;;;7.50;99.28
12077;BME280;12420;42.676;23.262;2023-04-29T03:55:00;94614.19;;;7.73;96.70
12077;BME280;12420;42.676;23.262;2023-04-29T03:57:29;94623.66;;;7.89;96.02
12077;BME280;12420;42.676;23.262;2023-04-29T03:59:55;94634.59;;;8.00;93.83
12077;BME280;12420;42.676;23.262;2023-04-29T04:02:22;94633.13;;;7.99;92.80
12077;BME280;12420;42.676;23.262;2023-04-29T04:04:49;94633.59;;;8.03;92.28
12077;BME280;12420;42.676;23.262;2023-04-29T04:07:16;94587.91;;;7.72;92.59
12077;BME280;12420;42.676;23.262;2023-04-29T04:09:42;94614.69;;;7.77;91.83
12077;BME280;12420;42.676;23.262;2023-04-29T04:12:09;94638.84;;;8.07;92.96
12077;BME280;12420;42.676;23.262;2023-04-29T04:14:37;94646.78;;;8.16;93.83
12077;BME280;12420;42.676;23.262;2023-04-29T04:17:04;94643.97;;;8.27;92.60
12077;BME280;12420;42.676;23.262;2023-04-29T04:19:31;94634.69;;;8.31;88.66
12077;BME280;12420;42.676;23.262;2023-04-29T04:21:58;94639.13;;;8.45;87.96
12077;BME280;12420;42.676;23.262;2023-04-29T04:24:25;94638.78;;;8.54;87.06
12077;BME280;12420;42.676;23.262;2023-04-29T04:26:52;94625.00;;;8.54;87.08
12077;BME280;12420;42.676;23.262;2023-04-29T04:29:19;94633.34;;;8.79;86.82
12077;BME280;12420;42.676;23.262;2023-04-29T04:31:47;94634.06;;;8.79;86.93
12077;BME280;12420;42.676;23.262;2023-04-29T04:34:15;94635.84;;;8.77;86.73
12077;BME280;12420;42.676;23.262;2023-04-29T04:36:43;94644.25;;;8.90;85.56
12077;BME280;12420;42.676;23.262;2023-04-29T04:39:10;94648.66;;;9.04;86.35
12077;BME280;12420;42.676;23.262;2023-04-29T04:41:37;94586.75;;;8.69;84.72
12077;BME280;12420;42.676;23.262;2023-04-29T04:44:10;94649.69;;;9.26;82.59
12077;BME280;12420;42.676;23.262;2023-04-29T04:46:53;94656.38;;;9.36;81.16
12077;BME280;12420;42.676;23.262;2023-04-29T04:49:22;94649.53;;;9.43;80.09
12077;BME280;12420;42.676;23.262;2023-04-29T04:51:49;94616.13;;;9.22;80.52
12077;BME280;12420;42.676;23.262;2023-04-29T04:54:16;94603.44;;;9.07;81.10
12077;BME280;12420;42.676;23.262;2023-04-29T04:56:42;94628.25;;;9.13;80.07
12077;BME280;12420;42.676;23.262;2023-04-29T04:59:09;94599.78;;;8.99;80.21
12077;BME280;12420;42.676;23.262;2023-04-29T05:01:36;94633.75;;;9.13;80.02
12077;BME280;12420;42.676;23.262;2023-04-29T05:04:05;94624.31;;;9.03;81.24
12077;BME280;12420;42.676;23.262;2023-04-29T05:06:34;94631.97;;;9.16;81.23
12077;BME280;12420;42.676;23.262;2023-04-29T05:09:03;94628.88;;;9.25;80.46
12077;BME280;12420;42.676;23.262;2023-04-29T05:11:30;94628.47;;;9.40;80.03
12077;BME280;12420;42.676;23.262;2023-04-29T05:13:57;94625.34;;;9.49;79.14
12077;BME280;12420;42.676;23.262;2023-04-29T05:16:24;94616.78;;;9.52;79.32
12077;BME280;12420;42.676;23.262;2023-04-29T05:18:51;94615.81;;;9.69;77.25
12077;BME280;12420;42.676;23.262;2023-04-29T05:21:19;94611.22;;;9.77;76.45
12077;BME280;12420;42.676;23.262;2023-04-29T05:23:45;94621.06;;;9.72;75.50
12077;BME280;12420;42.676;23.262;2023-04-29T05:26:13;94613.66;;;9.81;75.64
12077;BME280;12420;42.676;23.262;2023-04-29T05:28:40;94608.88;;;9.81;77.93
12077;BME280;12420;42.676;23.262;2023-04-29T05:31:07;94611.06;;;9.88;77.72
12077;BME280;12420;42.676;23.262;2023-04-29T05:33:33;94615.59;;;10.05;75.66
12077;BME280;12420;42.676;23.262;2023-04-29T05:36:00;94569.13;;;9.84;74.06
12077;BME280;12420;42.676;23.262;2023-04-29T05:38:28;94610.00;;;10.29;73.58
12077;BME280;12420;42.676;23.262;2023-04-29T05:40:55;94585.47;;;10.20;72.99
12077;BME280;12420;42.676;23.262;2023-04-29T05:43:22;94578.91;;;10.23;73.57
12077;BME280;12420;42.676;23.262;2023-04-29T05:45:48;94589.63;;;10.46;74.45
12077;BME280;12420;42.676;23.262;2023-04-29T05:48:15;94598.00;;;10.59;75.23
12077;BME280;12420;42.676;23.262;2023-04-29T05:50:42;94619.19;;;10.70;71.65
12077;BME280;12420;42.676;23.262;2023-04-29T05:53:09;94602.69;;;10.64;70.86
12077;BME280;12420;42.676;23.262;2023-04-29T05:55:38;94622.00;;;10.83;69.67
12077;BME280;12420;42.676;23.262;2023-04-29T05:58:08;94613.16;;;10.84;69.41
12077;BME280;12420;42.676;23.262;2023-04-29T06:00:35;94624.38;;;10.92;72.17
12077;BME280;12420;42.676;23.262;2023-04-29T06:03:02;94606.41;;;11.12;70.10
12077;BME280;12420;42.676;23.262;2023-04-29T06:05:29;94619.97;;;11.42;68.12
12077;BME280;12420;42.676;23.262;2023-04-29T06:07:55;94621.75;;;11.53;66.62
12077;BME280;12420;42.676;23.262;2023-04-29T06:10:22;94598.72;;;11.05;67.33
12077;BME280;12420;42.676;23.262;2023-04-29T06:12:50;94610.88;;;11.15;67.20
12077;BME280;12420;42.676;23.262;2023-04-29T06:15:17;94613.94;;;11.12;67.44
12077;BME280;12420;42.676;23.262;2023-04-29T06:17:43;94611.50;;;11.21;66.31
12077;BME280;12420;42.676;23.262;2023-04-29T06:20:11;94618.22;;;11.26;66.63
12077;BME280;12420;42.676;23.262;2023-04-29T06:22:38;94623.47;;;11.43;69.86
12077;BME280;12420;42.676;23.262;2023-04-29T06:25:05;94571.88;;;11.40;69.92
12077;BME280;12420;42.676;23.262;2023-04-29T06:27:32;94624.94;;;11.70;67.10
12077;BME280;12420;42.676;23.262;2023-04-29T06:30:00;94621.22;;;11.68;64.98
12077;BME280;12420;42.676;23.262;2023-04-29T06:35:48;94615.34;;;11.71;67.19
12077;BME280;12420;42.676;23.262;2023-04-29T06:38:15;94617.47;;;11.92;71.08
12077;BME280;12420;42.676;23.262;2023-04-29T06:40:42;94622.81;;;11.90;66.03
12077;BME280;12420;42.676;23.262;2023-04-29T06:43:09;94621.38;;;12.10;66.23
12077;BME280;12420;42.676;23.262;2023-04-29T06:45:37;94611.66;;;12.16;64.60
12077;BME280;12420;42.676;23.262;2023-04-29T06:48:04;94611.88;;;12.05;64.83
12077;BME280;12420;42.676;23.262;2023-04-29T06:50:31;94610.81;;;12.08;66.13
12077;BME280;12420;42.676;23.262;2023-04-29T06:52:58;94610.81;;;12.08;63.89
12077;BME280;12420;42.676;23.262;2023-04-29T06:55:24;94614.09;;;12.20;64.16
12077;BME280;12420;42.676;23.262;2023-04-29T06:57:51;94612.84;;;12.42;67.60
12077;BME280;12420;42.676;23.262;2023-04-29T07:00:18;94623.38;;;12.57;62.74
12077;BME280;12420;42.676;23.262;2023-04-29T07:02:48;94626.53;;;12.82;61.11
12077;BME280;12420;42.676;23.262;2023-04-29T07:05:15;94613.59;;;12.85;58.89
12077;BME280;12420;42.676;23.262;2023-04-29T07:07:42;94609.31;;;13.04;57.70
12077;BME280;12420;42.676;23.262;2023-04-29T07:10:09;94609.44;;;13.20;57.93
12077;BME280;12420;42.676;23.262;2023-04-29T07:12:36;94604.53;;;12.84;58.18
12077;BME280;12420;42.676;23.262;2023-04-29T07:15:03;94589.44;;;12.72;57.95
12077;BME280;12420;42.676;23.262;2023-04-29T07:17:30;94610.81;;;13.06;57.92
12077;BME280;12420;42.676;23.262;2023-04-29T07:19:58;94613.25;;;13.30;57.30
12077;BME280;12420;42.676;23.262;2023-04-29T07:22:25;94599.75;;;13.34;57.15
12077;BME280;12420;42.676;23.262;2023-04-29T07:24:52;94608.25;;;13.29;56.07
12077;BME280;12420;42.676;23.262;2023-04-29T07:27:19;94600.19;;;13.46;56.81
12077;BME280;12420;42.676;23.262;2023-04-29T07:29:45;94603.19;;;13.84;59.20
12077;BME280;12420;42.676;23.262;2023-04-29T07:32:12;94610.75;;;14.20;56.13
12077;BME280;12420;42.676;23.262;2023-04-29T07:34:40;94583.06;;;14.15;53.62
12077;BME280;12420;42.676;23.262;2023-04-29T07:37:09;94582.72;;;14.18;52.29
12077;BME280;12420;42.676;23.262;2023-04-29T07:39:35;94601.78;;;14.06;52.72
12077;BME280;12420;42.676;23.262;2023-04-29T07:42:02;94590.41;;;13.97;53.19
12077;BME280;12420;42.676;23.262;2023-04-29T07:44:29;94597.69;;;14.00;52.20
12077;BME280;12420;42.676;23.262;2023-04-29T07:46:56;94552.22;;;13.97;54.98
12077;BME280;12420;42.676;23.262;2023-04-29T07:49:22;94580.38;;;14.45;50.42
12077;BME280;12420;42.676;23.262;2023-04-29T07:51:50;94594.66;;;14.49;49.45
12077;BME280;12420;42.676;23.262;2023-04-29T07:54:21;94591.19;;;14.64;50.99
12077;BME280;12420;42.676;23.262;2023-04-29T07:56:48;94586.75;;;14.84;51.16
12077;BME280;12420;42.676;23.262;2023-04-29T07:59:14;94583.97;;;15.00;47.58
12077;BME280;12420;42.676;23.262;2023-04-29T08:01:41;94569.47;;;15.09;49.25
12077;BME280;12420;42.676;23.262;2023-04-29T08:04:08;94580.97;;;15.28;47.54
12077;BME280;12420;42.676;23.262;2023-04-29T08:06:35;94573.16;;;15.27;46.48
12077;BME280;12420;42.676;23.262;2023-04-29T08:09:01;94536.38;;;15.13;46.22
12077;BME280;12420;42.676;23.262;2023-04-29T08:11:30;94576.88;;;15.29;46.22
12077;BME280;12420;42.676;23.262;2023-04-29T08:13:56;94584.66;;;15.38;45.80
12077;BME280;12420;42.676;23.262;2023-04-29T08:16:24;94575.00;;;15.47;46.10
12077;BME280;12420;42.676;23.262;2023-04-29T08:18:51;94571.31;;;15.29;45.62
12077;BME280;12420;42.676;23.262;2023-04-29T08:21:18;94567.91;;;15.46;47.49
12077;BME280;12420;42.676;23.262;2023-04-29T08:23:45;94574.22;;;15.54;45.94
12077;BME280;12420;42.676;23.262;2023-04-29T08:26:12;94575.72;;;15.55;45.32
12077;BME280;12420;42.676;23.262;2023-04-29T08:28:40;94571.59;;;15.64;45.55
12077;BME280;12420;42.676;23.262;2023-04-29T08:31:07;94567.50;;;15.73;47.39
12077;BME280;12420;42.676;23.262;2023-04-29T08:33:35;94576.00;;;15.90;43.95
12077;BME280;12420;42.676;23.262;2023-04-29T08:36:02;94566.06;;;16.04;42.61
12077;BME280;12420;42.676;23.262;2023-04-29T08:38:29;94566.94;;;16.15;42.76
12077;BME280;12420;42.676;23.262;2023-04-29T08:40:56;94565.81;;;16.18;42.82
12077;BME280;12420;42.676;23.262;2023-04-29T08:43:24;94551.34;;;16.12;43.82
12077;BME280;12420;42.676;23.262;2023-04-29T08:45:56;94561.81;;;16.36;43.02
12077;BME280;12420;42.676;23.262;2023-04-29T08:48:25;94560.75;;;16.57;44.01
12077;BME280;12420;42.676;23.262;2023-04-29T08:50:53;94559.16;;;16.71;40.88
12077;BME280;12420;42.676;23.262;2023-04-29T08:53:20;94554.09;;;16.77;40.75
12077;BME280;12420;42.676;23.262;2023-04-29T08:55:47;94552.81;;;16.78;40.37
12077;BME280;12420;42.676;23.262;2023-04-29T08:58:14;94545.81;;;16.62;40.66
12077;BME280;12420;42.676;23.262;2023-04-29T09:00:42;94548.16;;;16.73;42.41
12077;BME280;12420;42.676;23.262;2023-04-29T09:03:16;94525.53;;;16.36;41.54
12077;BME280;12420;42.676;23.262;2023-04-29T09:05:44;94540.16;;;16.44;41.90
12077;BME280;12420;42.676;23.262;2023-04-29T09:08:13;94516.69;;;16.47;41.29
12077;BME280;12420;42.676;23.262;2023-04-29T09:10:41;94544.69;;;16.65;41.11
12077;BME280;12420;42.676;23.262;2023-04-29T09:13:08;94529.66;;;16.85;41.09
12077;BME280;12420;42.676;23.262;2023-04-29T09:15:35;94545.66;;;17.10;39.94
12077;BME280;12420;42.676;23.262;2023-04-29T09:18:04;94552.91;;;17.13;40.41
12077;BME280;12420;42.676;23.262;2023-04-29T09:20:32;94549.88;;;16.93;41.39
12077;BME280;12420;42.676;23.262;2023-04-29T09:23:01;94534.03;;;16.96;41.62
12077;BME280;12420;42.676;23.262;2023-04-29T09:25:29;94538.47;;;16.99;41.37
12077;BME280;12420;42.676;23.262;2023-04-29T09:27:56;94531.97;;;16.97;41.44
12077;BME280;12420;42.676;23.262;2023-04-29T09:30:23;94535.28;;;17.03;42.05
12077;BME280;12420;42.676;23.262;2023-04-29T09:33:05;94536.94;;;17.06;42.21
12077;BME280;12420;42.676;23.262;2023-04-29T09:35:35;94528.72;;;17.08;42.29
12077;BME280;12420;42.676;23.262;2023-04-29T09:38:10;94520.78;;;16.97;42.29
12077;BME280;12420;42.676;23.262;2023-04-29T09:40:38;94518.09;;;17.06;42.93
12077;BME280;12420;42.676;23.262;2023-04-29T09:43:13;94525.69;;;17.13;42.16
12077;BME280;12420;42.676;23.262;2023-04-29T09:45:46;94513.47;;;17.01;41.50
12077;BME280;12420;42.676;23.262;2023-04-29T09:48:14;94516.72;;;17.15;41.55
12077;BME280;12420;42.676;23.262;2023-04-29T09:50:43;94510.78;;;17.11;41.87
12077;BME280;12420;42.676;23.262;2023-04-29T09:53:26;94513.91;;;17.32;41.98
12077;BME280;12420;42.676;23.262;2023-04-29T09:55:57;94503.72;;;17.45;40.82
12077;BME280;12420;42.676;23.262;2023-04-29T09:58:27;94503.97;;;17.56;41.92
12077;BME280;12420;42.676;23.262;2023-04-29T10:00:57;94501.72;;;17.72;41.14
12077;BME280;12420;42.676;23.262;2023-04-29T10:03:26;94494.06;;;17.90;41.03
12077;BME280;12420;42.676;23.262;2023-04-29T10:05:55;94495.06;;;17.85;39.87
12077;BME280;12420;42.676;23.262;2023-04-29T10:08:24;94495.81;;;17.86;37.96
12077;BME280;12420;42.676;23.262;2023-04-29T10:10:52;94480.81;;;17.91;37.35
12077;BME280;12420;42.676;23.262;2023-04-29T10:13:22;94479.69;;;18.04;37.12
12077;BME280;12420;42.676;23.262;2023-04-29T10:15:57;94477.00;;;17.96;37.17
12077;BME280;12420;42.676;23.262;2023-04-29T10:18:29;94480.13;;;17.55;38.34
12077;BME280;12420;42.676;23.262;2023-04-29T10:21:02;94475.44;;;17.41;38.43
12077;BME280;12420;42.676;23.262;2023-04-29T10:23:29;94472.78;;;17.43;38.60
12077;BME280;12420;42.676;23.262;2023-04-29T10:25:56;94476.31;;;17.61;39.58
12077;BME280;12420;42.676;23.262;2023-04-29T10:28:25;94479.50;;;17.74;39.40
12077;BME280;12420;42.676;23.262;2023-04-29T10:30:56;94470.78;;;17.88;38.37
12077;BME280;12420;42.676;23.262;2023-04-29T10:33:26;94476.81;;;17.84;37.97
12077;BME280;12420;42.676;23.262;2023-04-29T10:35:57;94482.50;;;17.59;39.96
12077;BME280;12420;42.676;23.262;2023-04-29T10:38:29;94464.06;;;17.56;39.88
12077;BME280;12420;42.676;23.262;2023-04-29T10:40:57;94474.00;;;17.49;38.67
12077;BME280;12420;42.676;23.262;2023-04-29T10:43:25;94473.19;;;17.39;39.25
12077;BME280;12420;42.676;23.262;2023-04-29T10:46:16;94472.22;;;17.44;39.54
12077;BME280;12420;42.676;23.262;2023-04-29T10:48:48;94474.66;;;17.57;39.34
12077;BME280;12420;42.676;23.262;2023-04-29T10:51:30;94468.47;;;17.76;39.30
12077;BME280;12420;42.676;23.262;2023-04-29T10:54:00;94454.59;;;17.96;38.81
12077;BME280;12420;42.676;23.262;2023-04-29T10:56:42;94452.41;;;17.94;35.46
12077;BME280;12420;42.676;23.262;2023-04-29T10:59:10;94456.41;;;18.01;35.62
12077;BME280;12420;42.676;23.262;2023-04-29T11:01:41;94463.69;;;18.14;36.35
12077;BME280;12420;42.676;23.262;2023-04-29T11:04:12;94443.41;;;17.96;34.50
12077;BME280;12420;42.676;23.262;2023-04-29T11:06:44;94461.53;;;18.22;33.87
12077;BME280;12420;42.676;23.262;2023-04-29T11:09:19;94410.66;;;17.89;32.66
12077;BME280;12420;42.676;23.262;2023-04-29T11:11:53;94440.34;;;18.02;32.77
12077;BME280;12420;42.676;23.262;2023-04-29T11:14:24;94456.66;;;18.22;31.02
12077;BME280;12420;42.676;23.262;2023-04-29T11:16:52;94456.00;;;18.05;29.44
12077;BME280;12420;42.676;23.262;2023-04-29T11:19:19;94452.97;;;17.93;28.13
12077;BME280;12420;42.676;23.262;2023-04-29T11:21:46;94458.41;;;17.91;29.66
12077;BME280;12420;42.676;23.262;2023-04-29T11:24:13;94459.56;;;17.88;31.15
12077;BME280;12420;42.676;23.262;2023-04-29T11:26:47;94461.88;;;17.99;30.76
12077;BME280;12420;42.676;23.262;2023-04-29T11:29:17;94452.47;;;18.04;30.92
12077;BME280;12420;42.676;23.262;2023-04-29T11:31:45;94456.78;;;17.88;30.41
12077;BME280;12420;42.676;23.262;2023-04-29T11:34:12;94446.25;;;17.78;31.09
12077;BME280;12420;42.676;23.262;2023-04-29T11:36:38;94449.28;;;17.73;32.11
12077;BME280;12420;42.676;23.262;2023-04-29T11:39:05;94407.31;;;17.28;32.61
12077;BME280;12420;42.676;23.262;2023-04-29T11:41:33;94426.13;;;17.45;31.93
12077;BME280;12420;42.676;23.262;2023-04-29T11:44:02;94452.28;;;17.40;31.67
12077;BME280;12420;42.676;23.262;2023-04-29T11:46:32;94453.69;;;17.49;31.74
12077;BME280;12420;42.676;23.262;2023-04-29T11:49:00;94435.50;;;17.40;31.48
12077;BME280;12420;42.676;23.262;2023-04-29T11:51:27;94444.50;;;17.39;31.86
12077;BME280;12420;42.676;23.262;2023-04-29T11:53:55;94445.31;;;17.31;33.22
12077;BME280;12420;42.676;23.262;2023-04-29T11:56:23;94444.16;;;17.34;33.55
12077;BME280;12420;42.676;23.262;2023-04-29T11:58:53;94449.91;;;17.36;33.36
12077;BME280;12420;42.676;23.262;2023-04-29T12:01:24;94447.72;;;17.18;36.36
12077;BME280;12420;42.676;23.262;2023-04-29T12:03:56;94412.81;;;17.01;37.47
12077;BME280;12420;42.676;23.262;2023-04-29T12:06:26;94435.84;;;17.27;36.49
12077;BME280;12420;42.676;23.262;2023-04-29T12:08:53;94427.06;;;17.30;35.13
12077;BME280;12420;42.676;23.262;2023-04-29T12:11:21;94440.69;;;17.44;35.87
12077;BME280;12420;42.676;23.262;2023-04-29T12:13:49;94435.44;;;17.48;36.06
12077;BME280;12420;42.676;23.262;2023-04-29T12:16:16;94435.25;;;17.63;35.06
12077;BME280;12420;42.676;23.262;2023-04-29T12:18:45;94430.75;;;17.77;35.34
12077;BME280;12420;42.676;23.262;2023-04-29T12:21:12;94431.41;;;17.86;35.48
12077;BME280;12420;42.676;23.262;2023-04-29T12:23:40;94408.13;;;17.83;35.38
12077;BME280;12420;42.676;23.262;2023-04-29T12:26:07;94419.84;;;17.99;35.19
12077;BME280;12420;42.676;23.262;2023-04-29T12:28:34;94410.97;;;17.93;34.40
12077;BME280;12420;42.676;23.262;2023-04-29T12:31:01;94417.19;;;18.01;34.52
12077;BME280;12420;42.676;23.262;2023-04-29T12:33:28;94395.38;;;17.72;34.82
12077;BME280;12420;42.676;23.262;2023-04-29T12:35:57;94425.34;;;17.79;34.03
12077;BME280;12420;42.676;23.262;2023-04-29T12:38:26;94418.75;;;17.85;33.74
12077;BME280;12420;42.676;23.262;2023-04-29T12:40:53;94419.38;;;17.75;33.88
12077;BME280;12420;42.676;23.262;2023-04-29T12:43:25;94420.38;;;17.88;33.85
12077;BME280;12420;42.676;23.262;2023-04-29T12:45:53;94415.78;;;17.65;33.57
12077;BME280;12420;42.676;23.262;2023-04-29T12:48:21;94416.13;;;17.69;34.16
12077;BME280;12420;42.676;23.262;2023-04-29T12:50:48;94413.66;;;17.73;34.78
12077;BME280;12420;42.676;23.262;2023-04-29T12:53:17;94410.66;;;17.89;35.76
12077;BME280;12420;42.676;23.262;2023-04-29T12:55:44;94411.16;;;17.77;33.71
12077;BME280;12420;42.676;23.262;2023-04-29T12:58:11;94400.31;;;17.82;33.56
12077;BME280;12420;42.676;23.262;2023-04-29T13:00:37;94382.78;;;17.81;33.63
12077;BME280;12420;42.676;23.262;2023-04-29T13:03:04;94406.44;;;17.97;33.63